Onamia, Minnesota
Current Conditions -  °F | °C
As of 1:55 PM on Friday 24 Oct 2014 (Local Time) from KJMR Reporting Station
Clear Clear  
Wind Chill: 63°   Ceiling: Unl
Heat Index: 63°   Visibility: 10mi
Dew Point: 50°   Wind: 7mph
Humidity: 63%   Direction: 220°SW
Pressure: 29.83"   Gusts: NA
Location:  46.07°N, 93.67°W
Report Text: KJMR 241855Z AUTO 22006KT 10SM CLR 17/10 A2983 RMK AO2
Loading
Personal Weather Stations






























Interactive Weather Map
Tropical Storm Tracking
New forecast layout! Learn more

10-Day Weather Forecast

Advertisements
Track Severe Weather on mobile